createdAt,value
2017-10-31T00:02:07.571Z,8.80
2017-10-31T00:04:35.865Z,8.90
2017-10-31T00:07:04.161Z,8.70
2017-10-31T00:09:32.405Z,8.90
2017-10-31T00:12:00.662Z,9.00
2017-10-31T00:14:28.904Z,9.00
2017-10-31T00:16:57.937Z,8.90
2017-10-31T00:19:26.181Z,8.90
2017-10-31T00:21:54.433Z,9.00
2017-10-31T00:24:22.667Z,9.10
2017-10-31T00:26:50.948Z,9.00
2017-10-31T00:29:19.180Z,8.70
2017-10-31T00:31:48.187Z,8.70
2017-10-31T00:34:16.453Z,8.70
2017-10-31T00:36:44.688Z,9.20
2017-10-31T00:39:12.943Z,9.20
2017-10-31T00:41:41.174Z,8.70
2017-10-31T00:44:09.449Z,9.20
2017-10-31T00:46:37.804Z,9.10
2017-10-31T00:49:06.041Z,9.00
2017-10-31T00:51:34.292Z,9.00
2017-10-31T00:54:02.552Z,9.20
2017-10-31T00:56:30.816Z,9.00
2017-10-31T00:59:00.871Z,9.10
2017-10-31T01:01:29.138Z,9.00
2017-10-31T01:03:57.440Z,9.10
2017-10-31T01:06:25.691Z,9.10
2017-10-31T01:08:53.931Z,9.20
2017-10-31T01:11:22.189Z,9.20
2017-10-31T01:13:50.430Z,9.20
2017-10-31T01:16:18.704Z,9.20
2017-10-31T01:18:46.940Z,9.20
2017-10-31T01:21:15.185Z,9.30
2017-10-31T01:23:43.441Z,9.30
2017-10-31T01:26:11.691Z,9.20
2017-10-31T01:28:39.943Z,9.10
2017-10-31T01:31:08.208Z,9.10
2017-10-31T01:33:36.464Z,9.20
2017-10-31T01:36:04.764Z,9.20
2017-10-31T01:38:33.015Z,9.00
2017-10-31T01:41:01.289Z,9.40
2017-10-31T01:43:29.523Z,9.40
2017-10-31T01:45:57.788Z,9.40
2017-10-31T01:48:26.782Z,9.30
2017-10-31T01:50:55.049Z,9.30
2017-10-31T01:53:23.289Z,8.80
2017-10-31T01:55:51.546Z,9.30
2017-10-31T01:58:19.791Z,9.30
2017-10-31T02:00:48.799Z,9.30
2017-10-31T02:03:17.076Z,9.30
2017-10-31T02:05:46.489Z,9.20
2017-10-31T02:08:15.110Z,9.20
2017-10-31T02:10:43.373Z,9.10
2017-10-31T02:13:11.608Z,9.20
2017-10-31T02:15:39.891Z,9.10
2017-10-31T02:18:08.896Z,9.10
2017-10-31T02:20:37.146Z,8.80
2017-10-31T02:23:05.409Z,8.70
2017-10-31T02:25:33.648Z,9.10
2017-10-31T02:28:01.920Z,9.20
2017-10-31T02:30:30.175Z,8.70
2017-10-31T02:32:58.424Z,9.10
2017-10-31T02:35:27.442Z,9.00
2017-10-31T02:37:55.687Z,9.00
2017-10-31T02:40:23.962Z,8.60
2017-10-31T02:42:52.258Z,9.10
2017-10-31T02:45:20.516Z,8.70
2017-10-31T02:47:48.762Z,9.10
2017-10-31T02:50:17.048Z,8.90
2017-10-31T02:52:46.060Z,9.30
2017-10-31T02:55:14.340Z,9.10
2017-10-31T02:57:42.608Z,8.60
2017-10-31T03:00:11.635Z,9.30
2017-10-31T03:02:39.905Z,9.20
2017-10-31T03:05:08.161Z,8.80
2017-10-31T03:07:36.478Z,9.30
2017-10-31T03:10:04.747Z,9.30
2017-10-31T03:12:33.014Z,9.20
2017-10-31T03:15:01.255Z,8.80
2017-10-31T03:17:30.272Z,8.80
2017-10-31T03:19:58.525Z,9.30
2017-10-31T03:22:27.553Z,9.30
2017-10-31T03:24:55.820Z,9.30
2017-10-31T03:27:24.092Z,9.30
2017-10-31T03:29:52.367Z,9.30
2017-10-31T03:32:20.619Z,9.10
2017-10-31T03:34:48.906Z,9.40
2017-10-31T03:37:17.135Z,9.30
2017-10-31T03:39:45.427Z,9.50
2017-10-31T03:42:13.663Z,9.30
2017-10-31T03:44:41.949Z,9.40
2017-10-31T03:47:10.239Z,9.10
2017-10-31T03:49:38.490Z,9.00
2017-10-31T03:52:06.753Z,8.90
2017-10-31T03:54:35.026Z,8.90
2017-10-31T03:57:03.368Z,8.90
2017-10-31T03:59:31.619Z,9.40
2017-10-31T04:01:59.955Z,9.40
2017-10-31T04:04:28.195Z,9.00
2017-10-31T04:06:56.447Z,9.30
2017-10-31T04:09:24.700Z,8.90
2017-10-31T04:11:52.949Z,9.30
2017-10-31T04:14:21.959Z,8.90
2017-10-31T04:16:50.207Z,9.20
2017-10-31T04:19:18.848Z,8.90
2017-10-31T04:21:47.084Z,8.90
2017-10-31T04:24:16.103Z,9.40
2017-10-31T04:26:44.358Z,9.40
2017-10-31T04:29:13.347Z,9.40
2017-10-31T04:31:42.363Z,9.40
2017-10-31T04:34:10.595Z,9.40
2017-10-31T04:36:38.850Z,9.50
2017-10-31T04:39:07.091Z,9.50
2017-10-31T04:41:35.360Z,9.60
2017-10-31T04:44:03.583Z,9.50
2017-10-31T04:46:31.867Z,9.50
2017-10-31T04:49:00.096Z,9.50
2017-10-31T04:51:28.339Z,9.50
2017-10-31T04:53:56.687Z,9.50
2017-10-31T04:56:24.943Z,9.50
2017-10-31T04:58:53.186Z,9.50
2017-10-31T05:01:21.440Z,9.50
2017-10-31T05:03:49.753Z,9.50
2017-10-31T05:06:18.004Z,9.50
2017-10-31T05:08:46.273Z,9.50
2017-10-31T05:11:14.515Z,9.10
2017-10-31T05:13:42.765Z,9.50
2017-10-31T05:16:10.988Z,9.40
2017-10-31T05:18:39.245Z,8.90
2017-10-31T05:21:07.473Z,9.50
2017-10-31T05:23:35.757Z,9.40
2017-10-31T05:26:03.995Z,9.40
2017-10-31T05:28:32.234Z,9.40
2017-10-31T05:31:00.516Z,9.50
2017-10-31T05:33:28.740Z,9.50
2017-10-31T05:35:57.002Z,9.50
2017-10-31T05:38:25.269Z,9.50
2017-10-31T05:40:54.288Z,9.50
2017-10-31T05:43:22.558Z,9.50
2017-10-31T05:45:51.535Z,9.60
2017-10-31T05:48:20.138Z,9.60
2017-10-31T05:50:49.123Z,9.50
2017-10-31T05:53:17.373Z,9.50
2017-10-31T05:55:45.633Z,9.60
2017-10-31T05:58:14.636Z,9.50
2017-10-31T06:00:42.929Z,9.50
2017-10-31T06:03:11.198Z,9.60
2017-10-31T06:05:39.455Z,9.50
2017-10-31T06:08:07.694Z,9.50
2017-10-31T06:10:35.969Z,9.30
2017-10-31T06:13:04.203Z,9.60
2017-10-31T06:15:32.476Z,9.60
2017-10-31T06:18:00.710Z,9.70
2017-10-31T06:20:29.090Z,9.40
2017-10-31T06:23:03.061Z,9.70
2017-10-31T06:25:37.778Z,9.70
2017-10-31T06:28:11.744Z,9.70
2017-10-31T06:30:45.571Z,9.60
2017-10-31T06:33:13.817Z,9.60
2017-10-31T06:35:42.077Z,9.60
2017-10-31T06:38:11.083Z,9.70
2017-10-31T06:40:39.339Z,9.60
2017-10-31T06:43:07.593Z,9.70
2017-10-31T06:45:35.843Z,9.70
2017-10-31T06:48:04.102Z,9.70
2017-10-31T06:50:32.336Z,9.70
2017-10-31T06:53:01.370Z,9.80
2017-10-31T06:55:29.615Z,9.80
2017-10-31T06:57:57.903Z,9.80
2017-10-31T07:00:26.141Z,9.80
2017-10-31T07:02:54.404Z,9.80
2017-10-31T07:05:22.645Z,9.90
2017-10-31T07:07:50.910Z,9.90
2017-10-31T07:10:19.148Z,9.80
2017-10-31T07:12:47.417Z,9.80
2017-10-31T07:15:15.655Z,9.80
2017-10-31T07:17:43.916Z,9.80
2017-10-31T07:20:12.173Z,9.80
2017-10-31T07:22:41.209Z,9.80
2017-10-31T07:25:09.462Z,9.80
2017-10-31T07:27:37.731Z,9.80
2017-10-31T07:30:05.971Z,9.80
2017-10-31T07:32:34.245Z,9.80
2017-10-31T07:35:02.484Z,9.80
2017-10-31T07:37:30.741Z,9.90
2017-10-31T07:39:58.992Z,9.90
2017-10-31T07:42:27.261Z,9.80
2017-10-31T07:44:55.503Z,9.90
2017-10-31T07:47:23.740Z,9.90
2017-10-31T07:49:51.999Z,9.90
2017-10-31T07:52:21.008Z,9.90
2017-10-31T07:54:49.267Z,9.90
2017-10-31T07:57:18.287Z,10.00
2017-10-31T07:59:46.551Z,10.00
2017-10-31T08:02:14.812Z,10.10
2017-10-31T08:04:43.090Z,10.10
2017-10-31T08:07:12.092Z,10.10
2017-10-31T08:09:40.369Z,10.00
2017-10-31T08:12:08.614Z,10.10
2017-10-31T08:14:36.854Z,10.10
2017-10-31T08:17:05.306Z,10.10
2017-10-31T08:19:33.558Z,10.10
2017-10-31T08:22:02.586Z,10.10
2017-10-31T08:24:30.833Z,10.10
2017-10-31T08:26:59.905Z,10.10
2017-10-31T08:29:28.153Z,10.10
2017-10-31T08:31:56.428Z,10.20
2017-10-31T08:34:24.675Z,10.10
2017-10-31T08:36:53.052Z,10.10
2017-10-31T08:39:21.291Z,10.20
2017-10-31T08:41:49.558Z,10.20
2017-10-31T08:44:18.630Z,10.20
2017-10-31T08:46:46.889Z,10.20
2017-10-31T08:49:15.159Z,10.30
2017-10-31T08:51:43.413Z,10.20
2017-10-31T08:54:12.464Z,10.30
2017-10-31T08:56:40.715Z,10.20
2017-10-31T08:59:09.039Z,10.30
2017-10-31T09:01:37.304Z,10.30
2017-10-31T09:04:05.548Z,10.30
2017-10-31T09:06:33.797Z,10.40
2017-10-31T09:09:02.069Z,10.50
2017-10-31T09:11:30.343Z,10.50
2017-10-31T09:13:58.601Z,10.60
2017-10-31T09:16:26.880Z,10.60
2017-10-31T09:18:55.127Z,10.60
2017-10-31T09:21:23.391Z,10.60
2017-10-31T09:23:51.659Z,10.60
2017-10-31T09:26:19.936Z,10.60
2017-10-31T09:28:48.219Z,10.60
2017-10-31T09:31:16.571Z,10.70
2017-10-31T09:33:45.578Z,10.80
2017-10-31T09:36:13.807Z,10.80
2017-10-31T09:38:42.076Z,10.80
2017-10-31T09:41:10.319Z,10.80
2017-10-31T09:43:38.575Z,10.90
2017-10-31T09:46:06.835Z,10.90
2017-10-31T09:48:35.277Z,10.90
2017-10-31T09:51:03.537Z,10.90
2017-10-31T09:53:32.572Z,11.00
2017-10-31T09:56:01.974Z,10.90
2017-10-31T09:58:31.036Z,11.10
2017-10-31T10:00:59.429Z,11.00
2017-10-31T10:03:27.661Z,11.00
2017-10-31T10:05:55.927Z,11.00
2017-10-31T10:08:24.183Z,11.10
2017-10-31T10:10:53.216Z,11.10
2017-10-31T10:13:21.472Z,11.10
2017-10-31T10:15:49.908Z,11.20
2017-10-31T10:18:18.159Z,11.20
2017-10-31T10:20:46.464Z,11.20
2017-10-31T10:23:14.722Z,11.20
2017-10-31T10:25:42.972Z,11.20
2017-10-31T10:28:11.243Z,11.20
2017-10-31T10:30:39.503Z,11.20
2017-10-31T10:33:07.850Z,11.20
2017-10-31T10:35:36.068Z,11.20
2017-10-31T10:38:04.333Z,11.20
2017-10-31T10:40:32.586Z,11.20
2017-10-31T10:43:01.621Z,11.20
2017-10-31T10:45:29.871Z,11.20
2017-10-31T10:47:58.158Z,11.20
2017-10-31T10:50:26.392Z,11.20
2017-10-31T10:52:54.652Z,11.30
2017-10-31T10:55:22.893Z,11.30
2017-10-31T10:57:51.155Z,11.40
2017-10-31T11:00:19.446Z,11.40
2017-10-31T11:02:47.718Z,11.50
2017-10-31T11:05:16.011Z,11.50
2017-10-31T11:07:44.257Z,11.50
2017-10-31T11:10:12.531Z,11.40
2017-10-31T11:12:41.722Z,11.60
2017-10-31T11:15:09.956Z,11.50
2017-10-31T11:17:38.209Z,11.60
2017-10-31T11:20:06.483Z,11.60
2017-10-31T11:22:34.767Z,11.60
2017-10-31T11:25:03.046Z,11.50
2017-10-31T11:27:31.293Z,11.50
2017-10-31T11:29:59.584Z,11.60
2017-10-31T11:32:27.909Z,11.60
2017-10-31T11:34:56.163Z,11.60
2017-10-31T11:37:24.452Z,11.70
2017-10-31T11:39:52.704Z,11.80
2017-10-31T11:42:20.967Z,11.80
2017-10-31T11:44:49.232Z,11.80
2017-10-31T11:47:17.504Z,11.80
2017-10-31T11:49:45.749Z,11.80
2017-10-31T11:52:14.012Z,11.80
2017-10-31T11:54:42.403Z,11.80
2017-10-31T11:57:13.050Z,11.80
2017-10-31T11:59:42.058Z,11.80
2017-10-31T12:02:10.337Z,11.80
2017-10-31T12:04:38.578Z,11.70
2017-10-31T12:07:06.837Z,11.80
2017-10-31T12:09:35.082Z,11.80
2017-10-31T12:12:03.360Z,11.80
2017-10-31T12:14:31.634Z,11.80
2017-10-31T12:16:59.905Z,11.90
2017-10-31T12:19:28.163Z,11.90
2017-10-31T12:21:57.166Z,12.00
2017-10-31T12:24:25.474Z,11.90
2017-10-31T12:26:53.714Z,12.10
2017-10-31T12:29:22.023Z,12.10
2017-10-31T12:31:50.251Z,12.10
2017-10-31T12:34:19.294Z,11.90
2017-10-31T12:36:47.536Z,11.90
2017-10-31T12:39:15.811Z,11.90
2017-10-31T12:41:44.087Z,11.80
2017-10-31T12:44:12.376Z,11.80
2017-10-31T12:46:41.438Z,11.90
2017-10-31T12:49:09.775Z,11.90
2017-10-31T12:51:38.056Z,11.90
2017-10-31T12:54:06.313Z,11.90
2017-10-31T12:56:34.622Z,11.90
2017-10-31T12:59:02.865Z,11.90
2017-10-31T13:01:31.120Z,11.80
2017-10-31T13:03:59.380Z,11.80
2017-10-31T13:06:27.895Z,11.80
2017-10-31T13:08:56.959Z,11.90
2017-10-31T13:11:26.154Z,11.90
2017-10-31T13:13:55.609Z,11.90
2017-10-31T13:16:24.681Z,11.80
2017-10-31T13:18:54.294Z,11.90
2017-10-31T13:21:22.580Z,11.90
2017-10-31T13:23:50.866Z,11.90
2017-10-31T13:26:19.493Z,11.90
2017-10-31T13:28:48.721Z,12.00
2017-10-31T13:31:17.629Z,11.90
2017-10-31T13:33:46.416Z,12.00
2017-10-31T13:36:15.218Z,12.00
2017-10-31T13:38:44.894Z,12.00
2017-10-31T13:41:13.750Z,12.00
2017-10-31T13:43:42.785Z,12.00
2017-10-31T13:46:11.270Z,12.00
2017-10-31T13:48:39.536Z,12.00
2017-10-31T13:51:08.067Z,11.90
2017-10-31T13:53:36.417Z,11.90
2017-10-31T13:56:04.705Z,11.90
2017-10-31T13:58:32.955Z,11.90
2017-10-31T14:01:01.552Z,11.90
2017-10-31T14:03:30.316Z,11.90
2017-10-31T14:05:59.041Z,11.90
2017-10-31T14:08:27.832Z,11.90
2017-10-31T14:10:56.503Z,11.90
2017-10-31T14:13:25.026Z,11.90
2017-10-31T14:15:53.267Z,11.90
2017-10-31T14:18:21.568Z,11.90
2017-10-31T14:20:50.265Z,11.90
2017-10-31T14:23:18.540Z,12.00
2017-10-31T14:25:46.798Z,12.00
2017-10-31T14:28:15.056Z,11.90
2017-10-31T14:30:43.314Z,11.90
2017-10-31T14:33:11.606Z,12.00
2017-10-31T14:35:40.008Z,11.90
2017-10-31T14:38:09.128Z,11.90
2017-10-31T14:40:38.190Z,11.90
2017-10-31T14:43:06.451Z,11.80
2017-10-31T14:45:34.864Z,11.90
2017-10-31T14:48:03.200Z,11.80
2017-10-31T14:50:31.474Z,11.80
2017-10-31T14:52:59.739Z,11.80
2017-10-31T14:55:28.045Z,11.70
2017-10-31T14:57:56.359Z,11.70
2017-10-31T15:00:24.612Z,11.70
2017-10-31T15:02:53.702Z,11.80
2017-10-31T15:05:21.965Z,11.80
2017-10-31T15:07:50.246Z,11.80
2017-10-31T15:10:18.488Z,11.80
2017-10-31T15:12:46.764Z,11.70
2017-10-31T15:15:15.027Z,11.70
2017-10-31T15:17:44.055Z,11.70
2017-10-31T15:20:12.327Z,11.70
2017-10-31T15:22:40.741Z,11.70
2017-10-31T15:25:09.092Z,11.70
2017-10-31T15:27:38.170Z,11.60
2017-10-31T15:30:07.379Z,11.70
2017-10-31T15:32:36.015Z,11.70
